Grant Valley, Minnesota
Current Conditions -  °F | °C
As of 4:33 PM on Friday 24 Oct 2014 (Local Time) from KBJI Reporting Station
Clear Clear  
Wind Chill: 69°   Ceiling: Unl
Heat Index: 69°   Visibility: 10mi
Dew Point: 40°   Wind: 17mph
Humidity: 35%   Direction: 260°W
Pressure: 29.75"   Gusts: 24mph
Location:  47.5271°N, 94.7611°W
Report Text: KBJI 242133Z AUTO 26015G21KT 10SM CLR 21/05 A2975 RMK AO2 T02080046
Loading
Personal Weather Stations






























Interactive Weather Map
Tropical Storm Tracking
New forecast layout! Learn more

10-Day Weather Forecast

Advertisements
Track Severe Weather on mobile